sensor_id;sensor_type;location;lat;lon;timestamp;pressure;altitude;pressure_sealevel;temperature;humidity
32033;BME280;31720;52.638;9.216;2022-11-13T00:02:07;102633.31;;;5.12;100.00
32033;BME280;31720;52.638;9.216;2022-11-13T00:05:08;102631.59;;;5.09;100.00
32033;BME280;31720;52.638;9.216;2022-11-13T00:08:10;102629.84;;;5.08;100.00
32033;BME280;31720;52.638;9.216;2022-11-13T00:11:14;102622.03;;;5.06;100.00
32033;BME280;31720;52.638;9.216;2022-11-13T00:14:17;102619.41;;;5.03;100.00
32033;BME280;31720;52.638;9.216;2022-11-13T00:17:18;102614.22;;;5.00;100.00
32033;BME280;31720;52.638;9.216;2022-11-13T00:20:20;102613.34;;;5.01;100.00
32033;BME280;31720;52.638;9.216;2022-11-13T00:23:21;102611.63;;;5.00;100.00
32033;BME280;31720;52.638;9.216;2022-11-13T00:26:26;102611.63;;;5.00;100.00
32033;BME280;31720;52.638;9.216;2022-11-13T00:29:27;102606.41;;;4.97;100.00
32033;BME280;31720;52.638;9.216;2022-11-13T00:32:29;102609.88;;;4.95;100.00
32033;BME280;31720;52.638;9.216;2022-11-13T00:35:30;102609.00;;;4.94;100.00
32033;BME280;31720;52.638;9.216;2022-11-13T00:38:32;102607.28;;;4.92;100.00
32033;BME280;31720;52.638;9.216;2022-11-13T00:41:35;102611.63;;;4.88;100.00
32033;BME280;31720;52.638;9.216;2022-11-13T00:44:37;102607.28;;;4.84;100.00
32033;BME280;31720;52.638;9.216;2022-11-13T00:47:38;102603.78;;;4.85;100.00
32033;BME280;31720;52.638;9.216;2022-11-13T00:50:40;102599.44;;;4.86;100.00
32033;BME280;31720;52.638;9.216;2022-11-13T00:53:41;102596.84;;;4.86;100.00
32033;BME280;31720;52.638;9.216;2022-11-13T00:56:44;102609.03;;;4.82;100.00
32033;BME280;31720;52.638;9.216;2022-11-13T00:59:45;102597.72;;;4.75;100.00
32033;BME280;31720;52.638;9.216;2022-11-13T01:02:46;102600.31;;;4.74;100.00
32033;BME280;31720;52.638;9.216;2022-11-13T01:05:48;102599.47;;;4.73;100.00
32033;BME280;31720;52.638;9.216;2022-11-13T01:08:52;102591.63;;;4.72;100.00
32033;BME280;31720;52.638;9.216;2022-11-13T01:11:56;102593.38;;;4.73;100.00
32033;BME280;31720;52.638;9.216;2022-11-13T01:14:59;102596.00;;;4.73;100.00
32033;BME280;31720;52.638;9.216;2022-11-13T01:18:00;102594.25;;;4.73;100.00
32033;BME280;31720;52.638;9.216;2022-11-13T01:21:03;102596.00;;;4.68;100.00
32033;BME280;31720;52.638;9.216;2022-11-13T01:24:05;102594.22;;;4.67;100.00
32033;BME280;31720;52.638;9.216;2022-11-13T01:27:08;102600.31;;;4.66;100.00
32033;BME280;31720;52.638;9.216;2022-11-13T01:30:10;102592.50;;;4.68;100.00
32033;BME280;31720;52.638;9.216;2022-11-13T01:33:11;102596.84;;;4.64;100.00
32033;BME280;31720;52.638;9.216;2022-11-13T01:36:15;102592.50;;;4.55;100.00
32033;BME280;31720;52.638;9.216;2022-11-13T01:39:17;102600.28;;;4.48;100.00
32033;BME280;31720;52.638;9.216;2022-11-13T01:42:20;102597.69;;;4.42;100.00
32033;BME280;31720;52.638;9.216;2022-11-13T01:49:17;102595.91;;;4.35;100.00
32033;BME280;31720;52.638;9.216;2022-11-13T01:52:23;102588.09;;;4.30;100.00
32033;BME280;31720;52.638;9.216;2022-11-13T01:55:25;102593.28;;;4.25;100.00
32033;BME280;31720;52.638;9.216;2022-11-13T01:58:28;102588.09;;;4.24;100.00
32033;BME280;31720;52.638;9.216;2022-11-13T02:01:29;102595.88;;;4.22;100.00
32033;BME280;31720;52.638;9.216;2022-11-13T02:04:32;102585.47;;;4.22;100.00
32033;BME280;31720;52.638;9.216;2022-11-13T02:07:34;102588.97;;;4.18;100.00
32033;BME280;31720;52.638;9.216;2022-11-13T02:10:35;102588.94;;;4.17;100.00
32033;BME280;31720;52.638;9.216;2022-11-13T02:13:38;102589.78;;;4.13;100.00
32033;BME280;31720;52.638;9.216;2022-11-13T02:16:40;102584.59;;;4.10;100.00
32033;BME280;31720;52.638;9.216;2022-11-13T02:19:47;102583.69;;;4.07;100.00
32033;BME280;31720;52.638;9.216;2022-11-13T02:22:53;102581.97;;;4.06;100.00
32033;BME280;31720;52.638;9.216;2022-11-13T02:25:58;102570.69;;;4.03;100.00
32033;BME280;31720;52.638;9.216;2022-11-13T02:28:59;102574.16;;;4.00;100.00
32033;BME280;31720;52.638;9.216;2022-11-13T02:32:01;102565.44;;;3.94;100.00
32033;BME280;31720;52.638;9.216;2022-11-13T02:35:02;102572.38;;;3.93;100.00
32033;BME280;31720;52.638;9.216;2022-11-13T02:38:04;102566.31;;;3.93;100.00
32033;BME280;31720;52.638;9.216;2022-11-13T02:41:07;102565.44;;;3.94;100.00
32033;BME280;31720;52.638;9.216;2022-11-13T02:44:09;102556.78;;;3.89;100.00
32033;BME280;31720;52.638;9.216;2022-11-13T02:47:10;102559.34;;;3.90;100.00
32033;BME280;31720;52.638;9.216;2022-11-13T02:50:11;102556.78;;;3.87;100.00
32033;BME280;31720;52.638;9.216;2022-11-13T02:53:13;102556.75;;;3.84;100.00
32033;BME280;31720;52.638;9.216;2022-11-13T02:56:16;102556.72;;;3.79;100.00
32033;BME280;31720;52.638;9.216;2022-11-13T02:59:17;102549.78;;;3.80;100.00
32033;BME280;31720;52.638;9.216;2022-11-13T03:02:19;102552.41;;;3.80;100.00
32033;BME280;31720;52.638;9.216;2022-11-13T03:05:21;102550.66;;;3.80;100.00
32033;BME280;31720;52.638;9.216;2022-11-13T03:08:22;102547.19;;;3.78;100.00
32033;BME280;31720;52.638;9.216;2022-11-13T03:11:26;102543.75;;;3.83;100.00
32033;BME280;31720;52.638;9.216;2022-11-13T03:14:27;102537.69;;;3.87;100.00
32033;BME280;31720;52.638;9.216;2022-11-13T03:17:29;102537.69;;;3.90;100.00
32033;BME280;31720;52.638;9.216;2022-11-13T03:20:32;102533.38;;;3.93;100.00
32033;BME280;31720;52.638;9.216;2022-11-13T03:23:36;102533.38;;;3.93;100.00
32033;BME280;31720;52.638;9.216;2022-11-13T03:26:39;102532.53;;;3.96;100.00
32033;BME280;31720;52.638;9.216;2022-11-13T03:29:40;102533.41;;;3.96;100.00
32033;BME280;31720;52.638;9.216;2022-11-13T03:32:42;102529.06;;;3.97;100.00
32033;BME280;31720;52.638;9.216;2022-11-13T03:35:43;102521.22;;;3.94;100.00
32033;BME280;31720;52.638;9.216;2022-11-13T03:38:44;102526.44;;;3.92;100.00
32033;BME280;31720;52.638;9.216;2022-11-13T03:41:47;102526.44;;;3.91;100.00
32033;BME280;31720;52.638;9.216;2022-11-13T03:44:49;102530.75;;;3.86;100.00
32033;BME280;31720;52.638;9.216;2022-11-13T03:47:50;102532.47;;;3.77;100.00
32033;BME280;31720;52.638;9.216;2022-11-13T03:50:53;102527.22;;;3.71;100.00
32033;BME280;31720;52.638;9.216;2022-11-13T03:53:55;102529.81;;;3.67;100.00
32033;BME280;31720;52.638;9.216;2022-11-13T03:56:57;102534.13;;;3.63;100.00
32033;BME280;31720;52.638;9.216;2022-11-13T03:59:59;102531.53;;;3.63;100.00
32033;BME280;31720;52.638;9.216;2022-11-13T04:03:00;102531.53;;;3.60;100.00
32033;BME280;31720;52.638;9.216;2022-11-13T04:06:02;102529.78;;;3.58;100.00
32033;BME280;31720;52.638;9.216;2022-11-13T04:09:03;102532.38;;;3.54;100.00
32033;BME280;31720;52.638;9.216;2022-11-13T04:12:06;102536.69;;;3.51;100.00
32033;BME280;31720;52.638;9.216;2022-11-13T04:15:08;102534.06;;;3.48;100.00
32033;BME280;31720;52.638;9.216;2022-11-13T04:18:10;102525.41;;;3.46;100.00
32033;BME280;31720;52.638;9.216;2022-11-13T04:21:11;102526.25;;;3.43;100.00
32033;BME280;31720;52.638;9.216;2022-11-13T04:24:13;102529.72;;;3.44;100.00
32033;BME280;31720;52.638;9.216;2022-11-13T04:27:15;102520.19;;;3.43;100.00
32033;BME280;31720;52.638;9.216;2022-11-13T04:30:18;102520.19;;;3.41;100.00
32033;BME280;31720;52.638;9.216;2022-11-13T04:33:20;102506.34;;;3.41;100.00
32033;BME280;31720;52.638;9.216;2022-11-13T04:36:21;102506.31;;;3.39;100.00
32033;BME280;31720;52.638;9.216;2022-11-13T04:39:22;102499.38;;;3.40;100.00
32033;BME280;31720;52.638;9.216;2022-11-13T04:42:25;102506.28;;;3.35;100.00
32033;BME280;31720;52.638;9.216;2022-11-13T04:45:44;102503.66;;;3.31;100.00
32033;BME280;31720;52.638;9.216;2022-11-13T04:48:45;102502.78;;;3.31;100.00
32033;BME280;31720;52.638;9.216;2022-11-13T04:51:48;102500.19;;;3.28;100.00
32033;BME280;31720;52.638;9.216;2022-11-13T04:54:49;102502.78;;;3.25;100.00
32033;BME280;31720;52.638;9.216;2022-11-13T04:57:53;102490.66;;;3.24;100.00
32033;BME280;31720;52.638;9.216;2022-11-13T05:00:54;102492.38;;;3.23;100.00
32033;BME280;31720;52.638;9.216;2022-11-13T05:03:56;102495.84;;;3.25;100.00
32033;BME280;31720;52.638;9.216;2022-11-13T05:06:57;102504.50;;;3.26;100.00
32033;BME280;31720;52.638;9.216;2022-11-13T05:09:59;102488.91;;;3.23;100.00
32033;BME280;31720;52.638;9.216;2022-11-13T05:13:02;102485.41;;;3.22;100.00
32033;BME280;31720;52.638;9.216;2022-11-13T05:16:05;102493.25;;;3.24;100.00
32033;BME280;31720;52.638;9.216;2022-11-13T05:19:07;102489.75;;;3.22;100.00
32033;BME280;31720;52.638;9.216;2022-11-13T05:22:08;102477.63;;;3.21;100.00
32033;BME280;31720;52.638;9.216;2022-11-13T05:25:10;102485.41;;;3.18;100.00
32033;BME280;31720;52.638;9.216;2022-11-13T05:28:13;102483.66;;;3.15;100.00
32033;BME280;31720;52.638;9.216;2022-11-13T05:31:15;102475.84;;;3.09;100.00
32033;BME280;31720;52.638;9.216;2022-11-13T05:34:16;102478.44;;;3.04;100.00
32033;BME280;31720;52.638;9.216;2022-11-13T05:37:18;102477.53;;;3.01;100.00
32033;BME280;31720;52.638;9.216;2022-11-13T05:40:19;102473.19;;;2.98;100.00
32033;BME280;31720;52.638;9.216;2022-11-13T05:43:22;102464.53;;;2.96;100.00
32033;BME280;31720;52.638;9.216;2022-11-13T05:46:26;102466.25;;;2.96;100.00
32033;BME280;31720;52.638;9.216;2022-11-13T05:49:27;102461.03;;;2.94;100.00
32033;BME280;31720;52.638;9.216;2022-11-13T05:52:29;102450.66;;;2.91;100.00
32033;BME280;31720;52.638;9.216;2022-11-13T05:55:30;102454.97;;;2.91;100.00
32033;BME280;31720;52.638;9.216;2022-11-13T05:58:33;102448.91;;;2.92;100.00
32033;BME280;31720;52.638;9.216;2022-11-13T06:01:36;102437.66;;;2.94;100.00
32033;BME280;31720;52.638;9.216;2022-11-13T06:04:38;102447.19;;;2.92;100.00
32033;BME280;31720;52.638;9.216;2022-11-13T06:07:39;102452.38;;;2.92;100.00
32033;BME280;31720;52.638;9.216;2022-11-13T06:10:41;102446.28;;;2.90;100.00
32033;BME280;31720;52.638;9.216;2022-11-13T06:13:44;102444.56;;;2.88;100.00
32033;BME280;31720;52.638;9.216;2022-11-13T06:16:45;102441.97;;;2.89;100.00
32033;BME280;31720;52.638;9.216;2022-11-13T06:19:47;102435.03;;;2.85;100.00
32033;BME280;31720;52.638;9.216;2022-11-13T06:22:48;102430.69;;;2.84;100.00
32033;BME280;31720;52.638;9.216;2022-11-13T06:25:50;102429.81;;;2.82;100.00
32033;BME280;31720;52.638;9.216;2022-11-13T06:28:53;102434.16;;;2.85;100.00
32033;BME280;31720;52.638;9.216;2022-11-13T06:31:54;102436.78;;;2.89;100.00
32033;BME280;31720;52.638;9.216;2022-11-13T06:34:55;102435.06;;;2.91;100.00
32033;BME280;31720;52.638;9.216;2022-11-13T06:37:57;102426.41;;;2.92;100.00
32033;BME280;31720;52.638;9.216;2022-11-13T06:40:59;102430.75;;;2.93;100.00
32033;BME280;31720;52.638;9.216;2022-11-13T06:44:02;102431.63;;;2.95;100.00
32033;BME280;31720;52.638;9.216;2022-11-13T06:47:03;102435.94;;;2.95;100.00
32033;BME280;31720;52.638;9.216;2022-11-13T06:50:06;102441.16;;;2.98;100.00
32033;BME280;31720;52.638;9.216;2022-11-13T06:53:08;102440.31;;;3.02;100.00
32033;BME280;31720;52.638;9.216;2022-11-13T06:56:09;102429.94;;;3.00;100.00
32033;BME280;31720;52.638;9.216;2022-11-13T06:59:12;102429.94;;;3.00;100.00
32033;BME280;31720;52.638;9.216;2022-11-13T07:02:14;102438.56;;;3.04;100.00
32033;BME280;31720;52.638;9.216;2022-11-13T07:05:15;102448.13;;;3.05;100.00
32033;BME280;31720;52.638;9.216;2022-11-13T07:08:17;102444.66;;;3.06;100.00
32033;BME280;31720;52.638;9.216;2022-11-13T07:11:20;102452.47;;;3.09;100.00
32033;BME280;31720;52.638;9.216;2022-11-13T07:14:23;102445.53;;;3.13;100.00
32033;BME280;31720;52.638;9.216;2022-11-13T07:17:27;102441.25;;;3.16;100.00
32033;BME280;31720;52.638;9.216;2022-11-13T07:20:29;102456.84;;;3.21;100.00
32033;BME280;31720;52.638;9.216;2022-11-13T07:23:40;102451.69;;;3.25;100.00
32033;BME280;31720;52.638;9.216;2022-11-13T07:26:42;102443.91;;;3.30;100.00
32033;BME280;31720;52.638;9.216;2022-11-13T07:29:45;102439.59;;;3.38;100.00
32033;BME280;31720;52.638;9.216;2022-11-13T07:32:46;102447.41;;;3.43;100.00
32033;BME280;31720;52.638;9.216;2022-11-13T07:35:48;102434.44;;;3.52;100.00
32033;BME280;31720;52.638;9.216;2022-11-13T07:38:50;102444.00;;;3.56;100.00
32033;BME280;31720;52.638;9.216;2022-11-13T07:41:52;102444.88;;;3.63;100.00
32033;BME280;31720;52.638;9.216;2022-11-13T07:44:55;102441.44;;;3.65;100.00
32033;BME280;31720;52.638;9.216;2022-11-13T07:47:57;102435.38;;;3.69;100.00
32033;BME280;31720;52.638;9.216;2022-11-13T07:50:59;102428.44;;;3.71;100.00
32033;BME280;31720;52.638;9.216;2022-11-13T07:54:01;102428.44;;;3.74;100.00
32033;BME280;31720;52.638;9.216;2022-11-13T07:57:03;102423.25;;;3.79;100.00
32033;BME280;31720;52.638;9.216;2022-11-13T08:00:07;102412.84;;;3.84;100.00
32033;BME280;31720;52.638;9.216;2022-11-13T08:03:11;102422.41;;;3.86;100.00
32033;BME280;31720;52.638;9.216;2022-11-13T08:06:13;102423.25;;;3.90;100.00
32033;BME280;31720;52.638;9.216;2022-11-13T08:09:15;102417.19;;;3.94;100.00
32033;BME280;31720;52.638;9.216;2022-11-13T08:12:16;102407.66;;;3.94;100.00
32033;BME280;31720;52.638;9.216;2022-11-13T08:15:19;102418.94;;;3.96;100.00
32033;BME280;31720;52.638;9.216;2022-11-13T08:18:20;102415.47;;;3.99;100.00
32033;BME280;31720;52.638;9.216;2022-11-13T08:21:22;102424.16;;;4.01;100.00
32033;BME280;31720;52.638;9.216;2022-11-13T08:24:23;102424.13;;;4.04;100.00
32033;BME280;31720;52.638;9.216;2022-11-13T08:27:25;102421.53;;;4.07;100.00
32033;BME280;31720;52.638;9.216;2022-11-13T08:30:28;102429.34;;;4.12;100.00
32033;BME280;31720;52.638;9.216;2022-11-13T08:33:29;102422.41;;;4.15;100.00
32033;BME280;31720;52.638;9.216;2022-11-13T08:36:31;102426.75;;;4.18;100.00
32033;BME280;31720;52.638;9.216;2022-11-13T08:39:32;102415.50;;;4.19;100.00
32033;BME280;31720;52.638;9.216;2022-11-13T08:42:34;102416.34;;;4.21;100.00
32033;BME280;31720;52.638;9.216;2022-11-13T08:45:37;102403.31;;;4.22;100.00
32033;BME280;31720;52.638;9.216;2022-11-13T08:48:39;102402.47;;;4.22;100.00
32033;BME280;31720;52.638;9.216;2022-11-13T08:51:40;102405.94;;;4.24;100.00
32033;BME280;31720;52.638;9.216;2022-11-13T08:54:41;102399.00;;;4.26;100.00
32033;BME280;31720;52.638;9.216;2022-11-13T08:57:43;102402.47;;;4.28;100.00
32033;BME280;31720;52.638;9.216;2022-11-13T09:00:46;102395.53;;;4.33;100.00
32033;BME280;31720;52.638;9.216;2022-11-13T09:03:47;102408.53;;;4.39;100.00
32033;BME280;31720;52.638;9.216;2022-11-13T09:06:49;102397.25;;;4.43;100.00
32033;BME280;31720;52.638;9.216;2022-11-13T09:09:50;102399.84;;;4.48;100.00
32033;BME280;31720;52.638;9.216;2022-11-13T09:12:56;102404.19;;;4.52;100.00
32033;BME280;31720;52.638;9.216;2022-11-13T09:16:00;102409.38;;;4.53;100.00
32033;BME280;31720;52.638;9.216;2022-11-13T09:19:02;102405.03;;;4.54;100.00
32033;BME280;31720;52.638;9.216;2022-11-13T09:22:04;102407.66;;;4.60;100.00
32033;BME280;31720;52.638;9.216;2022-11-13T09:25:06;102403.28;;;4.68;100.00
32033;BME280;31720;52.638;9.216;2022-11-13T09:28:08;102397.19;;;4.74;100.00
32033;BME280;31720;52.638;9.216;2022-11-13T09:31:12;102395.44;;;4.79;100.00
32033;BME280;31720;52.638;9.216;2022-11-13T09:34:13;102396.28;;;4.89;100.00
32033;BME280;31720;52.638;9.216;2022-11-13T09:37:15;102390.16;;;5.00;100.00
32033;BME280;31720;52.638;9.216;2022-11-13T09:40:23;102390.13;;;5.08;100.00
32033;BME280;31720;52.638;9.216;2022-11-13T09:43:32;102396.16;;;5.16;100.00
32033;BME280;31720;52.638;9.216;2022-11-13T09:46:39;102394.41;;;5.24;100.00
32033;BME280;31720;52.638;9.216;2022-11-13T09:49:45;102397.81;;;5.34;100.00
32033;BME280;31720;52.638;9.216;2022-11-13T09:52:47;102399.50;;;5.44;100.00
32033;BME280;31720;52.638;9.216;2022-11-13T09:56:14;102392.53;;;5.51;100.00
32033;BME280;31720;52.638;9.216;2022-11-13T09:59:23;102389.88;;;5.60;100.00
32033;BME280;31720;52.638;9.216;2022-11-13T10:02:38;102391.56;;;5.63;100.00
32033;BME280;31720;52.638;9.216;2022-11-13T10:05:49;102379.38;;;5.66;100.00
32033;BME280;31720;52.638;9.216;2022-11-13T10:08:55;102369.81;;;5.70;100.00
32033;BME280;31720;52.638;9.216;2022-11-13T10:12:01;102368.88;;;5.78;100.00
32033;BME280;31720;52.638;9.216;2022-11-13T10:15:08;102369.69;;;5.87;100.00
32033;BME280;31720;52.638;9.216;2022-11-13T10:18:17;102380.09;;;5.96;100.00
32033;BME280;31720;52.638;9.216;2022-11-13T10:21:28;102370.47;;;6.01;100.00
32033;BME280;31720;52.638;9.216;2022-11-13T10:24:36;102372.13;;;6.08;100.00
32033;BME280;31720;52.638;9.216;2022-11-13T10:27:39;102361.59;;;6.20;100.00
32033;BME280;31720;52.638;9.216;2022-11-13T10:30:41;102365.84;;;6.30;100.00
32033;BME280;31720;52.638;9.216;2022-11-13T10:33:43;102363.13;;;6.43;100.00
32033;BME280;31720;52.638;9.216;2022-11-13T10:36:56;102357.69;;;6.61;100.00
32033;BME280;31720;52.638;9.216;2022-11-13T10:40:00;102360.91;;;6.86;100.00
32033;BME280;31720;52.638;9.216;2022-11-13T10:43:11;102347.50;;;7.14;100.00
32033;BME280;31720;52.638;9.216;2022-11-13T10:46:18;102349.66;;;7.44;100.00
32033;BME280;31720;52.638;9.216;2022-11-13T10:49:25;102342.28;;;7.71;100.00
32033;BME280;31720;52.638;9.216;2022-11-13T10:52:29;102333.16;;;7.95;100.00
32033;BME280;31720;52.638;9.216;2022-11-13T10:55:37;102334.44;;;8.23;100.00
32033;BME280;31720;52.638;9.216;2022-11-13T10:58:39;102327.75;;;8.55;100.00
32033;BME280;31720;52.638;9.216;2022-11-13T11:01:41;102321.00;;;8.85;100.00
32033;BME280;31720;52.638;9.216;2022-11-13T11:04:45;102306.69;;;9.01;100.00
32033;BME280;31720;52.638;9.216;2022-11-13T11:07:46;102304.63;;;9.15;100.00
32033;BME280;31720;52.638;9.216;2022-11-13T11:10:55;102304.25;;;9.32;100.00
32033;BME280;31720;52.638;9.216;2022-11-13T11:14:19;102298.06;;;9.35;100.00
32033;BME280;31720;52.638;9.216;2022-11-13T11:17:25;102292.06;;;9.30;100.00
32033;BME280;31720;52.638;9.216;2022-11-13T11:20:42;102284.63;;;9.11;100.00
32033;BME280;31720;52.638;9.216;2022-11-13T11:23:48;102281.34;;;9.02;100.00
32033;BME280;31720;52.638;9.216;2022-11-13T11:26:55;102284.31;;;8.85;100.00
32033;BME280;31720;52.638;9.216;2022-11-13T11:30:03;102277.59;;;8.72;100.00
32033;BME280;31720;52.638;9.216;2022-11-13T11:33:10;102272.31;;;8.75;100.00
32033;BME280;31720;52.638;9.216;2022-11-13T11:36:21;102272.16;;;8.81;100.00
32033;BME280;31720;52.638;9.216;2022-11-13T11:39:28;102275.28;;;9.00;100.00
32033;BME280;31720;52.638;9.216;2022-11-13T11:42:37;102275.94;;;9.09;100.00
32033;BME280;31720;52.638;9.216;2022-11-13T11:45:41;102277.59;;;9.13;100.00
32033;BME280;31720;52.638;9.216;2022-11-13T11:48:43;102272.25;;;9.17;100.00
32033;BME280;31720;52.638;9.216;2022-11-13T11:51:53;102278.25;;;9.22;100.00
32033;BME280;31720;52.638;9.216;2022-11-13T11:55:09;102270.56;;;9.14;100.00
32033;BME280;31720;52.638;9.216;2022-11-13T11:58:21;102262.06;;;9.03;100.00
32033;BME280;31720;52.638;9.216;2022-11-13T12:01:38;102257.88;;;8.96;100.00
32033;BME280;31720;52.638;9.216;2022-11-13T12:04:51;102265.00;;;8.89;100.00
32033;BME280;31720;52.638;9.216;2022-11-13T12:08:09;102259.16;;;8.76;100.00
32033;BME280;31720;52.638;9.216;2022-11-13T12:11:16;102261.06;;;8.70;100.00
32033;BME280;31720;52.638;9.216;2022-11-13T12:14:27;102262.16;;;8.58;100.00
32033;BME280;31720;52.638;9.216;2022-11-13T12:17:43;102261.53;;;8.47;100.00
32033;BME280;31720;52.638;9.216;2022-11-13T12:20:56;102260.78;;;8.40;100.00
32033;BME280;31720;52.638;9.216;2022-11-13T12:24:17;102262.69;;;8.30;100.00
32033;BME280;31720;52.638;9.216;2022-11-13T12:27:24;102261.13;;;8.22;100.00
32033;BME280;31720;52.638;9.216;2022-11-13T12:30:37;102263.09;;;8.10;100.00
32033;BME280;31720;52.638;9.216;2022-11-13T12:33:47;102250.75;;;8.16;100.00
32033;BME280;31720;52.638;9.216;2022-11-13T12:36:49;102245.38;;;8.23;100.00
32033;BME280;31720;52.638;9.216;2022-11-13T12:39:55;102239.13;;;8.30;100.00
32033;BME280;31720;52.638;9.216;2022-11-13T12:43:11;102238.25;;;8.30;100.00
32033;BME280;31720;52.638;9.216;2022-11-13T12:46:18;102230.47;;;8.27;100.00
32033;BME280;31720;52.638;9.216;2022-11-13T12:49:29;102231.63;;;8.13;100.00
32033;BME280;31720;52.638;9.216;2022-11-13T12:52:32;102238.72;;;8.07;100.00
32033;BME280;31720;52.638;9.216;2022-11-13T12:55:37;102233.50;;;8.05;100.00
32033;BME280;31720;52.638;9.216;2022-11-13T12:58:39;102237.84;;;8.06;100.00
32033;BME280;31720;52.638;9.216;2022-11-13T13:01:44;102239.66;;;8.03;100.00
32033;BME280;31720;52.638;9.216;2022-11-13T13:04:57;102237.13;;;7.98;100.00
32033;BME280;31720;52.638;9.216;2022-11-13T13:08:27;102239.78;;;7.97;100.00
32033;BME280;31720;52.638;9.216;2022-11-13T13:11:42;102234.53;;;7.97;100.00
32033;BME280;31720;52.638;9.216;2022-11-13T13:15:00;102232.75;;;8.00;100.00
32033;BME280;31720;52.638;9.216;2022-11-13T13:18:09;102222.22;;;8.02;100.00
32033;BME280;31720;52.638;9.216;2022-11-13T13:21:12;102216.34;;;7.89;100.00
32033;BME280;31720;52.638;9.216;2022-11-13T13:24:27;102218.22;;;7.82;100.00
32033;BME280;31720;52.638;9.216;2022-11-13T13:27:34;102230.41;;;7.83;100.00
32033;BME280;31720;52.638;9.216;2022-11-13T13:30:47;102230.41;;;7.83;100.00
32033;BME280;31720;52.638;9.216;2022-11-13T13:33:59;102232.22;;;7.81;100.00
32033;BME280;31720;52.638;9.216;2022-11-13T13:37:16;102232.38;;;7.71;100.00
32033;BME280;31720;52.638;9.216;2022-11-13T13:40:28;102229.03;;;7.64;100.00
32033;BME280;31720;52.638;9.216;2022-11-13T13:43:45;102218.72;;;7.55;100.00
32033;BME280;31720;52.638;9.216;2022-11-13T13:46:55;102223.25;;;7.45;100.00
32033;BME280;31720;52.638;9.216;2022-11-13T13:49:56;102216.34;;;7.40;100.00
32033;BME280;31720;52.638;9.216;2022-11-13T13:52:58;102219.06;;;7.33;100.00
32033;BME280;31720;52.638;9.216;2022-11-13T13:56:01;102216.63;;;7.23;100.00
32033;BME280;31720;52.638;9.216;2022-11-13T13:59:13;102214.06;;;7.20;100.00
32033;BME280;31720;52.638;9.216;2022-11-13T14:02:17;102224.56;;;7.18;100.00
32033;BME280;31720;52.638;9.216;2022-11-13T14:05:27;102212.41;;;7.14;100.00
32033;BME280;31720;52.638;9.216;2022-11-13T14:08:29;102195.00;;;7.11;100.00
32033;BME280;31720;52.638;9.216;2022-11-13T14:11:30;102198.53;;;7.10;100.00
32033;BME280;31720;52.638;9.216;2022-11-13T14:14:33;102207.28;;;7.06;100.00
32033;BME280;31720;52.638;9.216;2022-11-13T14:17:34;102203.78;;;7.07;100.00
32033;BME280;31720;52.638;9.216;2022-11-13T14:20:45;102194.25;;;7.05;100.00
32033;BME280;31720;52.638;9.216;2022-11-13T14:23:48;102185.56;;;7.03;100.00
32033;BME280;31720;52.638;9.216;2022-11-13T14:26:53;102193.47;;;6.98;100.00
32033;BME280;31720;52.638;9.216;2022-11-13T14:29:58;102188.31;;;6.94;100.00
32033;BME280;31720;52.638;9.216;2022-11-13T14:33:01;102186.63;;;6.90;100.00
32033;BME280;31720;52.638;9.216;2022-11-13T14:36:04;102179.72;;;6.87;100.00
32033;BME280;31720;52.638;9.216;2022-11-13T14:39:14;102177.94;;;6.89;100.00
32033;BME280;31720;52.638;9.216;2022-11-13T14:42:19;102178.84;;;6.86;100.00
32033;BME280;31720;52.638;9.216;2022-11-13T14:45:25;102176.19;;;6.90;100.00
32033;BME280;31720;52.638;9.216;2022-11-13T14:48:28;102174.47;;;6.89;100.00
32033;BME280;31720;52.638;9.216;2022-11-13T14:51:31;102167.47;;;6.89;100.00
32033;BME280;31720;52.638;9.216;2022-11-13T14:54:34;102169.19;;;6.92;100.00
32033;BME280;31720;52.638;9.216;2022-11-13T14:57:46;102166.63;;;6.89;100.00
32033;BME280;31720;52.638;9.216;2022-11-13T15:00:49;102170.16;;;6.84;100.00
32033;BME280;31720;52.638;9.216;2022-11-13T15:03:51;102179.78;;;6.82;100.00
32033;BME280;31720;52.638;9.216;2022-11-13T15:06:52;102172.84;;;6.81;100.00
32033;BME280;31720;52.638;9.216;2022-11-13T15:09:57;102177.25;;;6.76;100.00
32033;BME280;31720;52.638;9.216;2022-11-13T15:13:00;102172.91;;;6.77;100.00
32033;BME280;31720;52.638;9.216;2022-11-13T15:16:03;102176.31;;;6.80;100.00
32033;BME280;31720;52.638;9.216;2022-11-13T15:19:08;102167.63;;;6.80;100.00
32033;BME280;31720;52.638;9.216;2022-11-13T15:22:11;102170.22;;;6.80;100.00
32033;BME280;31720;52.638;9.216;2022-11-13T15:25:14;102167.72;;;6.74;100.00
32033;BME280;31720;52.638;9.216;2022-11-13T15:28:16;102170.38;;;6.71;100.00
32033;BME280;31720;52.638;9.216;2022-11-13T15:31:25;102166.03;;;6.70;100.00
32033;BME280;31720;52.638;9.216;2022-11-13T15:34:29;102166.88;;;6.70;100.00
32033;BME280;31720;52.638;9.216;2022-11-13T15:37:30;102164.28;;;6.70;100.00
32033;BME280;31720;52.638;9.216;2022-11-13T15:40:32;102153.84;;;6.70;100.00
32033;BME280;31720;52.638;9.216;2022-11-13T15:43:33;102166.84;;;6.72;100.00
32033;BME280;31720;52.638;9.216;2022-11-13T15:46:36;102159.09;;;6.69;100.00
32033;BME280;31720;52.638;9.216;2022-11-13T15:49:38;102157.38;;;6.68;100.00
32033;BME280;31720;52.638;9.216;2022-11-13T15:52:42;102165.25;;;6.65;100.00
32033;BME280;31720;52.638;9.216;2022-11-13T15:55:44;102159.13;;;6.66;100.00
32033;BME280;31720;52.638;9.216;2022-11-13T15:58:46;102153.06;;;6.64;100.00
32033;BME280;31720;52.638;9.216;2022-11-13T16:01:50;102147.75;;;6.70;100.00
32033;BME280;31720;52.638;9.216;2022-11-13T16:04:53;102146.91;;;6.68;100.00
32033;BME280;31720;52.638;9.216;2022-11-13T16:07:54;102150.38;;;6.68;100.00